sensor_id;sensor_type;location;lat;lon;timestamp;temperature;humidity
51841;DHT22;37888;53.246;6.658;2023-07-28T00:02:25;18.10;99.90
51841;DHT22;37888;53.246;6.658;2023-07-28T00:04:51;17.80;99.90
51841;DHT22;37888;53.246;6.658;2023-07-28T00:07:18;17.90;99.90
51841;DHT22;37888;53.246;6.658;2023-07-28T00:09:46;17.80;99.90
51841;DHT22;37888;53.246;6.658;2023-07-28T00:12:12;18.00;99.90
51841;DHT22;37888;53.246;6.658;2023-07-28T00:14:38;17.80;99.90
51841;DHT22;37888;53.246;6.658;2023-07-28T00:17:05;17.90;99.90
51841;DHT22;37888;53.246;6.658;2023-07-28T00:19:34;18.10;99.90
51841;DHT22;37888;53.246;6.658;2023-07-28T00:21:59;18.10;99.90
51841;DHT22;37888;53.246;6.658;2023-07-28T00:24:28;18.10;99.90
51841;DHT22;37888;53.246;6.658;2023-07-28T00:26:53;17.90;99.90
51841;DHT22;37888;53.246;6.658;2023-07-28T00:29:19;17.90;99.90
51841;DHT22;37888;53.246;6.658;2023-07-28T00:31:45;17.90;99.90
51841;DHT22;37888;53.246;6.658;2023-07-28T00:34:11;17.80;99.90
51841;DHT22;37888;53.246;6.658;2023-07-28T00:36:37;17.90;99.90
51841;DHT22;37888;53.246;6.658;2023-07-28T00:39:03;18.10;99.90
51841;DHT22;37888;53.246;6.658;2023-07-28T00:41:32;18.00;99.90
51841;DHT22;37888;53.246;6.658;2023-07-28T00:44:03;18.00;99.90
51841;DHT22;37888;53.246;6.658;2023-07-28T00:46:30;18.10;99.90
51841;DHT22;37888;53.246;6.658;2023-07-28T00:48:56;17.80;99.90
51841;DHT22;37888;53.246;6.658;2023-07-28T00:51:23;18.00;99.90
51841;DHT22;37888;53.246;6.658;2023-07-28T00:53:49;18.10;99.90
51841;DHT22;37888;53.246;6.658;2023-07-28T00:56:15;18.10;99.90
51841;DHT22;37888;53.246;6.658;2023-07-28T00:58:44;18.10;99.90
51841;DHT22;37888;53.246;6.658;2023-07-28T01:01:10;18.20;99.90
51841;DHT22;37888;53.246;6.658;2023-07-28T01:03:36;18.20;99.90
51841;DHT22;37888;53.246;6.658;2023-07-28T01:08:49;18.10;99.90
51841;DHT22;37888;53.246;6.658;2023-07-28T01:11:15;17.90;99.90
51841;DHT22;37888;53.246;6.658;2023-07-28T01:13:45;18.00;99.90
51841;DHT22;37888;53.246;6.658;2023-07-28T01:16:14;18.00;99.90
51841;DHT22;37888;53.246;6.658;2023-07-28T01:18:41;18.00;99.90
51841;DHT22;37888;53.246;6.658;2023-07-28T01:21:12;18.10;99.90
51841;DHT22;37888;53.246;6.658;2023-07-28T01:26:33;17.90;99.90
51841;DHT22;37888;53.246;6.658;2023-07-28T01:29:00;18.10;99.90
51841;DHT22;37888;53.246;6.658;2023-07-28T01:31:26;18.00;99.90
51841;DHT22;37888;53.246;6.658;2023-07-28T01:33:54;18.20;99.90
51841;DHT22;37888;53.246;6.658;2023-07-28T01:36:20;17.80;99.90
51841;DHT22;37888;53.246;6.658;2023-07-28T01:38:46;18.10;99.90
51841;DHT22;37888;53.246;6.658;2023-07-28T01:41:12;18.00;99.90
51841;DHT22;37888;53.246;6.658;2023-07-28T01:43:38;18.10;99.90
51841;DHT22;37888;53.246;6.658;2023-07-28T01:46:04;17.90;99.90
51841;DHT22;37888;53.246;6.658;2023-07-28T01:48:30;18.00;99.90
51841;DHT22;37888;53.246;6.658;2023-07-28T01:51:02;17.90;99.90
51841;DHT22;37888;53.246;6.658;2023-07-28T01:53:31;17.90;99.90
51841;DHT22;37888;53.246;6.658;2023-07-28T01:55:59;17.90;99.90
51841;DHT22;37888;53.246;6.658;2023-07-28T01:58:26;18.00;99.90
51841;DHT22;37888;53.246;6.658;2023-07-28T02:00:52;18.10;99.90
51841;DHT22;37888;53.246;6.658;2023-07-28T02:03:18;18.10;99.90
51841;DHT22;37888;53.246;6.658;2023-07-28T02:05:44;18.00;99.90
51841;DHT22;37888;53.246;6.658;2023-07-28T02:08:10;18.20;99.90
51841;DHT22;37888;53.246;6.658;2023-07-28T02:10:36;18.00;99.90
51841;DHT22;37888;53.246;6.658;2023-07-28T02:13:02;18.10;99.90
51841;DHT22;37888;53.246;6.658;2023-07-28T02:15:31;18.20;99.90
51841;DHT22;37888;53.246;6.658;2023-07-28T02:17:57;18.20;99.90
51841;DHT22;37888;53.246;6.658;2023-07-28T02:20:26;18.00;99.90
51841;DHT22;37888;53.246;6.658;2023-07-28T02:22:52;17.90;99.90
51841;DHT22;37888;53.246;6.658;2023-07-28T02:25:18;18.00;99.90
51841;DHT22;37888;53.246;6.658;2023-07-28T02:27:46;17.90;99.90
51841;DHT22;37888;53.246;6.658;2023-07-28T02:30:15;18.00;99.90
51841;DHT22;37888;53.246;6.658;2023-07-28T02:32:43;18.20;99.90
51841;DHT22;37888;53.246;6.658;2023-07-28T02:35:09;18.10;99.90
51841;DHT22;37888;53.246;6.658;2023-07-28T02:37:38;18.10;99.90
51841;DHT22;37888;53.246;6.658;2023-07-28T02:40:05;18.10;99.90
51841;DHT22;37888;53.246;6.658;2023-07-28T02:42:31;18.00;99.90
51841;DHT22;37888;53.246;6.658;2023-07-28T02:44:59;17.90;99.90
51841;DHT22;37888;53.246;6.658;2023-07-28T02:47:25;18.20;99.90
51841;DHT22;37888;53.246;6.658;2023-07-28T02:52:19;17.90;99.90
51841;DHT22;37888;53.246;6.658;2023-07-28T02:54:47;18.10;99.90
51841;DHT22;37888;53.246;6.658;2023-07-28T02:57:19;18.10;99.90
51841;DHT22;37888;53.246;6.658;2023-07-28T02:59:45;18.00;99.90
51841;DHT22;37888;53.246;6.658;2023-07-28T03:02:11;17.90;99.90
51841;DHT22;37888;53.246;6.658;2023-07-28T03:04:37;18.20;99.90
51841;DHT22;37888;53.246;6.658;2023-07-28T03:07:03;18.20;99.90
51841;DHT22;37888;53.246;6.658;2023-07-28T03:09:29;18.20;99.90
51841;DHT22;37888;53.246;6.658;2023-07-28T03:11:55;18.00;99.90
51841;DHT22;37888;53.246;6.658;2023-07-28T03:14:21;18.20;99.90
51841;DHT22;37888;53.246;6.658;2023-07-28T03:16:48;17.90;99.90
51841;DHT22;37888;53.246;6.658;2023-07-28T03:19:14;18.00;99.90
51841;DHT22;37888;53.246;6.658;2023-07-28T03:21:40;18.10;99.90
51841;DHT22;37888;53.246;6.658;2023-07-28T03:24:06;18.10;99.90
51841;DHT22;37888;53.246;6.658;2023-07-28T03:26:32;18.20;99.90
51841;DHT22;37888;53.246;6.658;2023-07-28T03:28:58;17.90;99.90
51841;DHT22;37888;53.246;6.658;2023-07-28T03:31:24;18.10;99.90
51841;DHT22;37888;53.246;6.658;2023-07-28T03:33:50;17.80;99.90
51841;DHT22;37888;53.246;6.658;2023-07-28T03:36:16;17.80;99.90
51841;DHT22;37888;53.246;6.658;2023-07-28T03:38:42;18.10;99.90
51841;DHT22;37888;53.246;6.658;2023-07-28T03:41:08;18.00;99.90
51841;DHT22;37888;53.246;6.658;2023-07-28T03:43:34;17.90;99.90
51841;DHT22;37888;53.246;6.658;2023-07-28T03:46:00;17.90;99.90
51841;DHT22;37888;53.246;6.658;2023-07-28T03:48:26;18.10;99.90
51841;DHT22;37888;53.246;6.658;2023-07-28T03:50:52;18.00;99.90
51841;DHT22;37888;53.246;6.658;2023-07-28T03:53:18;17.60;99.90
51841;DHT22;37888;53.246;6.658;2023-07-28T03:55:44;17.90;99.90
51841;DHT22;37888;53.246;6.658;2023-07-28T03:58:10;18.10;99.90
51841;DHT22;37888;53.246;6.658;2023-07-28T04:00:39;18.20;99.90
51841;DHT22;37888;53.246;6.658;2023-07-28T04:03:05;18.20;99.90
51841;DHT22;37888;53.246;6.658;2023-07-28T04:05:31;18.00;99.90
51841;DHT22;37888;53.246;6.658;2023-07-28T04:07:56;18.20;99.90
51841;DHT22;37888;53.246;6.658;2023-07-28T04:10:23;17.90;99.90
51841;DHT22;37888;53.246;6.658;2023-07-28T04:12:48;18.20;99.90
51841;DHT22;37888;53.246;6.658;2023-07-28T04:15:14;18.20;99.90
51841;DHT22;37888;53.246;6.658;2023-07-28T04:17:40;17.90;99.90
51841;DHT22;37888;53.246;6.658;2023-07-28T04:20:07;18.10;99.90
51841;DHT22;37888;53.246;6.658;2023-07-28T04:22:35;18.20;99.90
51841;DHT22;37888;53.246;6.658;2023-07-28T04:25:04;18.10;99.90
51841;DHT22;37888;53.246;6.658;2023-07-28T04:27:30;17.90;99.90
51841;DHT22;37888;53.246;6.658;2023-07-28T04:29:56;17.90;99.90
51841;DHT22;37888;53.246;6.658;2023-07-28T04:32:22;18.20;99.90
51841;DHT22;37888;53.246;6.658;2023-07-28T04:34:50;18.00;99.90
51841;DHT22;37888;53.246;6.658;2023-07-28T04:37:17;17.90;99.90
51841;DHT22;37888;53.246;6.658;2023-07-28T04:39:43;18.20;99.90
51841;DHT22;37888;53.246;6.658;2023-07-28T04:42:10;17.90;99.90
51841;DHT22;37888;53.246;6.658;2023-07-28T04:44:41;18.20;99.90
51841;DHT22;37888;53.246;6.658;2023-07-28T04:47:11;18.00;99.90
51841;DHT22;37888;53.246;6.658;2023-07-28T04:49:37;18.20;99.90
51841;DHT22;37888;53.246;6.658;2023-07-28T04:52:03;17.90;99.90
51841;DHT22;37888;53.246;6.658;2023-07-28T04:54:32;18.20;99.90
51841;DHT22;37888;53.246;6.658;2023-07-28T04:57:01;18.00;99.90
51841;DHT22;37888;53.246;6.658;2023-07-28T04:59:30;18.30;99.90
51841;DHT22;37888;53.246;6.658;2023-07-28T05:01:58;18.30;99.90
51841;DHT22;37888;53.246;6.658;2023-07-28T05:04:24;18.20;99.90
51841;DHT22;37888;53.246;6.658;2023-07-28T05:06:50;18.30;99.90
51841;DHT22;37888;53.246;6.658;2023-07-28T05:09:16;18.00;99.90
51841;DHT22;37888;53.246;6.658;2023-07-28T05:11:45;18.30;99.90
51841;DHT22;37888;53.246;6.658;2023-07-28T05:14:14;18.10;99.90
51841;DHT22;37888;53.246;6.658;2023-07-28T05:16:40;18.10;99.90
51841;DHT22;37888;53.246;6.658;2023-07-28T05:19:08;18.30;99.90
51841;DHT22;37888;53.246;6.658;2023-07-28T05:21:34;18.40;99.90
51841;DHT22;37888;53.246;6.658;2023-07-28T05:24:00;18.30;99.90
51841;DHT22;37888;53.246;6.658;2023-07-28T05:26:26;18.30;99.90
51841;DHT22;37888;53.246;6.658;2023-07-28T05:28:52;18.10;99.90
51841;DHT22;37888;53.246;6.658;2023-07-28T05:31:21;18.30;99.90
51841;DHT22;37888;53.246;6.658;2023-07-28T05:33:46;18.00;99.90
51841;DHT22;37888;53.246;6.658;2023-07-28T05:36:13;18.00;99.90
51841;DHT22;37888;53.246;6.658;2023-07-28T05:38:39;18.20;99.90
51841;DHT22;37888;53.246;6.658;2023-07-28T05:41:10;18.10;99.90
51841;DHT22;37888;53.246;6.658;2023-07-28T05:43:42;18.30;99.90
51841;DHT22;37888;53.246;6.658;2023-07-28T05:46:08;18.20;99.90
51841;DHT22;37888;53.246;6.658;2023-07-28T05:48:36;18.10;99.90
51841;DHT22;37888;53.246;6.658;2023-07-28T05:51:08;18.10;99.90
51841;DHT22;37888;53.246;6.658;2023-07-28T05:53:34;18.40;99.90
51841;DHT22;37888;53.246;6.658;2023-07-28T05:56:09;18.30;99.90
51841;DHT22;37888;53.246;6.658;2023-07-28T05:58:41;18.00;99.90
51841;DHT22;37888;53.246;6.658;2023-07-28T06:01:06;18.40;99.90
51841;DHT22;37888;53.246;6.658;2023-07-28T06:03:38;18.10;99.90
51841;DHT22;37888;53.246;6.658;2023-07-28T06:06:04;18.50;99.90
51841;DHT22;37888;53.246;6.658;2023-07-28T06:08:50;18.50;99.90
51841;DHT22;37888;53.246;6.658;2023-07-28T06:11:16;18.30;99.90
51841;DHT22;37888;53.246;6.658;2023-07-28T06:13:42;18.60;99.90
51841;DHT22;37888;53.246;6.658;2023-07-28T06:16:08;18.60;99.90
51841;DHT22;37888;53.246;6.658;2023-07-28T06:18:34;18.60;99.90
51841;DHT22;37888;53.246;6.658;2023-07-28T06:21:02;18.30;99.90
51841;DHT22;37888;53.246;6.658;2023-07-28T06:23:28;18.40;99.90
51841;DHT22;37888;53.246;6.658;2023-07-28T06:25:54;18.50;99.90
51841;DHT22;37888;53.246;6.658;2023-07-28T06:28:20;18.40;99.90
51841;DHT22;37888;53.246;6.658;2023-07-28T06:30:46;18.60;99.90
51841;DHT22;37888;53.246;6.658;2023-07-28T06:33:12;18.30;99.90
51841;DHT22;37888;53.246;6.658;2023-07-28T06:35:38;18.40;99.90
51841;DHT22;37888;53.246;6.658;2023-07-28T06:38:04;18.60;99.90
51841;DHT22;37888;53.246;6.658;2023-07-28T06:40:35;18.50;99.90
51841;DHT22;37888;53.246;6.658;2023-07-28T06:43:04;18.70;99.90
51841;DHT22;37888;53.246;6.658;2023-07-28T06:49:30;19.00;99.90
51841;DHT22;37888;53.246;6.658;2023-07-28T06:51:57;18.90;99.90
51841;DHT22;37888;53.246;6.658;2023-07-28T06:54:23;18.80;99.90
51841;DHT22;37888;53.246;6.658;2023-07-28T06:56:50;19.40;99.90
51841;DHT22;37888;53.246;6.658;2023-07-28T06:59:16;19.00;99.90
51841;DHT22;37888;53.246;6.658;2023-07-28T07:01:47;18.70;99.90
51841;DHT22;37888;53.246;6.658;2023-07-28T07:19:15;19.20;99.90
51841;DHT22;37888;53.246;6.658;2023-07-28T07:29:35;20.70;99.90
51841;DHT22;37888;53.246;6.658;2023-07-28T07:36:45;20.40;99.90
51841;DHT22;37888;53.246;6.658;2023-07-28T07:39:20;19.90;99.90
51841;DHT22;37888;53.246;6.658;2023-07-28T07:45:58;19.70;99.90
51841;DHT22;37888;53.246;6.658;2023-07-28T07:51:52;19.60;99.90
51841;DHT22;37888;53.246;6.658;2023-07-28T07:54:18;19.50;99.90
51841;DHT22;37888;53.246;6.658;2023-07-28T07:56:47;19.90;99.90
51841;DHT22;37888;53.246;6.658;2023-07-28T07:59:25;20.10;99.90
51841;DHT22;37888;53.246;6.658;2023-07-28T08:01:56;20.20;99.90
51841;DHT22;37888;53.246;6.658;2023-07-28T08:04:21;20.10;99.90
51841;DHT22;37888;53.246;6.658;2023-07-28T08:06:47;20.00;99.90
51841;DHT22;37888;53.246;6.658;2023-07-28T08:09:13;20.10;99.90
51841;DHT22;37888;53.246;6.658;2023-07-28T08:11:39;20.00;99.90
51841;DHT22;37888;53.246;6.658;2023-07-28T08:14:05;20.10;99.90
51841;DHT22;37888;53.246;6.658;2023-07-28T08:16:31;20.20;99.90
51841;DHT22;37888;53.246;6.658;2023-07-28T08:18:57;20.30;99.90
51841;DHT22;37888;53.246;6.658;2023-07-28T08:21:22;20.40;99.90
51841;DHT22;37888;53.246;6.658;2023-07-28T08:23:48;20.30;99.90
51841;DHT22;37888;53.246;6.658;2023-07-28T08:26:14;20.20;99.90
51841;DHT22;37888;53.246;6.658;2023-07-28T08:28:40;20.10;99.90
51841;DHT22;37888;53.246;6.658;2023-07-28T08:31:05;20.10;99.90
51841;DHT22;37888;53.246;6.658;2023-07-28T08:33:31;20.00;99.90
51841;DHT22;37888;53.246;6.658;2023-07-28T08:35:57;19.90;99.90
51841;DHT22;37888;53.246;6.658;2023-07-28T08:38:23;19.90;99.90
51841;DHT22;37888;53.246;6.658;2023-07-28T08:40:49;19.70;99.90
51841;DHT22;37888;53.246;6.658;2023-07-28T08:43:14;19.70;99.90
51841;DHT22;37888;53.246;6.658;2023-07-28T08:45:40;19.60;99.90
51841;DHT22;37888;53.246;6.658;2023-07-28T08:48:06;19.50;99.90
51841;DHT22;37888;53.246;6.658;2023-07-28T08:50:32;19.50;99.90
51841;DHT22;37888;53.246;6.658;2023-07-28T08:52:58;19.30;99.90
51841;DHT22;37888;53.246;6.658;2023-07-28T08:55:25;19.10;99.90
51841;DHT22;37888;53.246;6.658;2023-07-28T08:57:51;19.50;99.90
51841;DHT22;37888;53.246;6.658;2023-07-28T09:00:17;19.60;99.90
51841;DHT22;37888;53.246;6.658;2023-07-28T09:02:49;19.80;99.90
51841;DHT22;37888;53.246;6.658;2023-07-28T09:05:20;20.00;99.90
51841;DHT22;37888;53.246;6.658;2023-07-28T09:07:46;20.00;99.90
51841;DHT22;37888;53.246;6.658;2023-07-28T09:10:13;20.10;99.90
51841;DHT22;37888;53.246;6.658;2023-07-28T09:12:49;20.30;99.90
51841;DHT22;37888;53.246;6.658;2023-07-28T09:15:16;20.60;99.90
51841;DHT22;37888;53.246;6.658;2023-07-28T09:17:45;20.60;99.90
51841;DHT22;37888;53.246;6.658;2023-07-28T09:20:17;20.70;99.90
51841;DHT22;37888;53.246;6.658;2023-07-28T09:22:44;20.70;99.90
51841;DHT22;37888;53.246;6.658;2023-07-28T09:25:15;20.70;99.90
51841;DHT22;37888;53.246;6.658;2023-07-28T09:27:50;20.70;99.90
51841;DHT22;37888;53.246;6.658;2023-07-28T09:30:17;20.70;99.90
51841;DHT22;37888;53.246;6.658;2023-07-28T09:32:50;20.60;99.90
51841;DHT22;37888;53.246;6.658;2023-07-28T09:35:16;20.70;99.90
51841;DHT22;37888;53.246;6.658;2023-07-28T09:37:47;20.60;99.90
51841;DHT22;37888;53.246;6.658;2023-07-28T09:40:16;20.40;99.90
51841;DHT22;37888;53.246;6.658;2023-07-28T09:42:44;20.40;99.90
51841;DHT22;37888;53.246;6.658;2023-07-28T09:45:12;20.40;99.90
51841;DHT22;37888;53.246;6.658;2023-07-28T09:47:38;20.40;99.90
51841;DHT22;37888;53.246;6.658;2023-07-28T09:50:06;20.60;99.90
51841;DHT22;37888;53.246;6.658;2023-07-28T09:52:39;21.00;99.90
51841;DHT22;37888;53.246;6.658;2023-07-28T09:55:09;21.30;99.90
51841;DHT22;37888;53.246;6.658;2023-07-28T09:57:46;21.60;99.90
51841;DHT22;37888;53.246;6.658;2023-07-28T10:00:16;21.90;99.90
51841;DHT22;37888;53.246;6.658;2023-07-28T10:02:43;22.00;99.90
51841;DHT22;37888;53.246;6.658;2023-07-28T10:05:09;22.00;99.90
51841;DHT22;37888;53.246;6.658;2023-07-28T10:07:41;22.30;99.90
51841;DHT22;37888;53.246;6.658;2023-07-28T10:10:08;22.30;99.90
51841;DHT22;37888;53.246;6.658;2023-07-28T10:12:42;22.40;99.90
51841;DHT22;37888;53.246;6.658;2023-07-28T10:15:20;22.50;99.90
51841;DHT22;37888;53.246;6.658;2023-07-28T10:17:51;22.50;99.90
51841;DHT22;37888;53.246;6.658;2023-07-28T10:20:40;22.40;99.90
51841;DHT22;37888;53.246;6.658;2023-07-28T10:23:11;22.20;99.90
51841;DHT22;37888;53.246;6.658;2023-07-28T10:25:41;22.30;99.90
51841;DHT22;37888;53.246;6.658;2023-07-28T10:28:25;22.30;99.90
51841;DHT22;37888;53.246;6.658;2023-07-28T10:30:58;22.10;99.90
51841;DHT22;37888;53.246;6.658;2023-07-28T10:38:44;21.80;99.90
51841;DHT22;37888;53.246;6.658;2023-07-28T10:41:15;21.80;99.90
51841;DHT22;37888;53.246;6.658;2023-07-28T10:43:43;21.70;99.90
51841;DHT22;37888;53.246;6.658;2023-07-28T10:49:34;21.40;99.90
51841;DHT22;37888;53.246;6.658;2023-07-28T10:52:00;21.30;99.90
51841;DHT22;37888;53.246;6.658;2023-07-28T10:54:31;21.20;99.90
51841;DHT22;37888;53.246;6.658;2023-07-28T10:57:02;21.40;99.90
51841;DHT22;37888;53.246;6.658;2023-07-28T10:59:28;21.60;99.90
51841;DHT22;37888;53.246;6.658;2023-07-28T11:01:57;21.70;99.90
51841;DHT22;37888;53.246;6.658;2023-07-28T11:04:22;21.70;99.90
51841;DHT22;37888;53.246;6.658;2023-07-28T11:06:53;21.70;99.90
51841;DHT22;37888;53.246;6.658;2023-07-28T11:09:22;21.60;99.90
51841;DHT22;37888;53.246;6.658;2023-07-28T11:11:49;21.70;99.90
51841;DHT22;37888;53.246;6.658;2023-07-28T11:14:16;21.80;99.90
51841;DHT22;37888;53.246;6.658;2023-07-28T11:16:44;22.20;99.90
51841;DHT22;37888;53.246;6.658;2023-07-28T11:19:13;22.30;99.90
51841;DHT22;37888;53.246;6.658;2023-07-28T11:21:40;22.40;99.90
51841;DHT22;37888;53.246;6.658;2023-07-28T11:24:07;22.60;99.90
51841;DHT22;37888;53.246;6.658;2023-07-28T11:26:35;22.60;99.90
51841;DHT22;37888;53.246;6.658;2023-07-28T11:29:01;22.60;99.90
51841;DHT22;37888;53.246;6.658;2023-07-28T11:31:29;22.70;99.90
51841;DHT22;37888;53.246;6.658;2023-07-28T11:33:54;22.90;99.90
51841;DHT22;37888;53.246;6.658;2023-07-28T11:36:28;23.00;99.90
51841;DHT22;37888;53.246;6.658;2023-07-28T11:38:57;23.00;99.90
51841;DHT22;37888;53.246;6.658;2023-07-28T11:41:24;23.00;99.90
51841;DHT22;37888;53.246;6.658;2023-07-28T11:43:51;23.10;99.90
51841;DHT22;37888;53.246;6.658;2023-07-28T11:46:43;23.20;99.90
51841;DHT22;37888;53.246;6.658;2023-07-28T11:49:19;23.20;99.90
51841;DHT22;37888;53.246;6.658;2023-07-28T11:51:49;23.30;99.90
51841;DHT22;37888;53.246;6.658;2023-07-28T11:54:17;23.30;99.90
51841;DHT22;37888;53.246;6.658;2023-07-28T11:56:46;23.30;99.90
51841;DHT22;37888;53.246;6.658;2023-07-28T11:59:15;23.30;99.90
51841;DHT22;37888;53.246;6.658;2023-07-28T12:04:26;23.00;99.90
51841;DHT22;37888;53.246;6.658;2023-07-28T12:07:28;23.00;99.90
51841;DHT22;37888;53.246;6.658;2023-07-28T12:10:03;23.00;99.90
51841;DHT22;37888;53.246;6.658;2023-07-28T12:12:45;23.20;99.90
51841;DHT22;37888;53.246;6.658;2023-07-28T12:15:22;23.20;99.90
51841;DHT22;37888;53.246;6.658;2023-07-28T12:20:44;23.10;99.90
51841;DHT22;37888;53.246;6.658;2023-07-28T12:23:13;23.10;99.90
51841;DHT22;37888;53.246;6.658;2023-07-28T12:25:40;23.00;99.90
51841;DHT22;37888;53.246;6.658;2023-07-28T12:28:06;23.00;99.90
51841;DHT22;37888;53.246;6.658;2023-07-28T12:30:32;22.90;99.90
51841;DHT22;37888;53.246;6.658;2023-07-28T12:32:58;22.80;99.90
51841;DHT22;37888;53.246;6.658;2023-07-28T12:35:28;22.70;99.90
51841;DHT22;37888;53.246;6.658;2023-07-28T12:38:04;22.60;99.90
51841;DHT22;37888;53.246;6.658;2023-07-28T12:40:33;22.60;99.90
51841;DHT22;37888;53.246;6.658;2023-07-28T12:43:03;22.70;99.90
51841;DHT22;37888;53.246;6.658;2023-07-28T12:45:29;22.60;99.90
51841;DHT22;37888;53.246;6.658;2023-07-28T12:47:58;22.60;99.90
51841;DHT22;37888;53.246;6.658;2023-07-28T12:50:24;22.60;99.90
51841;DHT22;37888;53.246;6.658;2023-07-28T12:52:50;22.60;99.90
51841;DHT22;37888;53.246;6.658;2023-07-28T12:55:18;22.60;99.90
51841;DHT22;37888;53.246;6.658;2023-07-28T12:57:43;22.70;99.90
51841;DHT22;37888;53.246;6.658;2023-07-28T13:00:10;22.80;99.90
51841;DHT22;37888;53.246;6.658;2023-07-28T13:02:40;23.00;99.90
51841;DHT22;37888;53.246;6.658;2023-07-28T13:05:07;23.00;99.90
51841;DHT22;37888;53.246;6.658;2023-07-28T13:07:33;23.10;99.90
51841;DHT22;37888;53.246;6.658;2023-07-28T13:09:59;23.00;99.90
51841;DHT22;37888;53.246;6.658;2023-07-28T13:12:24;23.00;99.90
51841;DHT22;37888;53.246;6.658;2023-07-28T13:14:50;23.00;99.90
51841;DHT22;37888;53.246;6.658;2023-07-28T13:17:16;23.00;99.90
51841;DHT22;37888;53.246;6.658;2023-07-28T13:19:42;23.00;99.90
51841;DHT22;37888;53.246;6.658;2023-07-28T13:22:08;23.00;99.90
51841;DHT22;37888;53.246;6.658;2023-07-28T13:24:33;23.00;99.90
51841;DHT22;37888;53.246;6.658;2023-07-28T13:26:59;22.90;99.90
51841;DHT22;37888;53.246;6.658;2023-07-28T13:29:25;22.80;99.90
51841;DHT22;37888;53.246;6.658;2023-07-28T13:31:56;22.80;99.90
51841;DHT22;37888;53.246;6.658;2023-07-28T13:34:22;22.80;99.90
51841;DHT22;37888;53.246;6.658;2023-07-28T13:36:48;22.90;99.90
51841;DHT22;37888;53.246;6.658;2023-07-28T13:39:16;22.90;99.90
51841;DHT22;37888;53.246;6.658;2023-07-28T13:42:01;22.90;99.90
51841;DHT22;37888;53.246;6.658;2023-07-28T13:44:27;23.00;99.90
51841;DHT22;37888;53.246;6.658;2023-07-28T13:46:53;22.90;99.90
51841;DHT22;37888;53.246;6.658;2023-07-28T13:49:19;23.00;99.90
51841;DHT22;37888;53.246;6.658;2023-07-28T13:51:47;23.10;99.90
51841;DHT22;37888;53.246;6.658;2023-07-28T13:54:14;23.10;99.90
51841;DHT22;37888;53.246;6.658;2023-07-28T13:56:40;23.10;99.90
51841;DHT22;37888;53.246;6.658;2023-07-28T13:59:30;23.10;99.90
51841;DHT22;37888;53.246;6.658;2023-07-28T14:02:03;23.10;99.90
51841;DHT22;37888;53.246;6.658;2023-07-28T14:04:31;23.00;99.90
51841;DHT22;37888;53.246;6.658;2023-07-28T14:07:23;22.80;99.90
51841;DHT22;37888;53.246;6.658;2023-07-28T14:09:49;22.80;99.90
51841;DHT22;37888;53.246;6.658;2023-07-28T14:12:17;22.70;99.90
51841;DHT22;37888;53.246;6.658;2023-07-28T14:14:43;22.90;99.90
51841;DHT22;37888;53.246;6.658;2023-07-28T14:17:11;22.60;99.90
51841;DHT22;37888;53.246;6.658;2023-07-28T14:19:41;22.60;99.90
51841;DHT22;37888;53.246;6.658;2023-07-28T14:22:07;22.60;99.90
51841;DHT22;37888;53.246;6.658;2023-07-28T14:24:34;22.70;99.90
51841;DHT22;37888;53.246;6.658;2023-07-28T14:30:54;23.30;99.90
51841;DHT22;37888;53.246;6.658;2023-07-28T14:33:37;22.80;99.90
51841;DHT22;37888;53.246;6.658;2023-07-28T14:47:38;22.80;99.90
51841;DHT22;37888;53.246;6.658;2023-07-28T14:50:04;22.90;99.90
51841;DHT22;37888;53.246;6.658;2023-07-28T14:52:33;22.90;99.90
51841;DHT22;37888;53.246;6.658;2023-07-28T14:54:59;22.90;99.90
51841;DHT22;37888;53.246;6.658;2023-07-28T14:57:24;22.80;99.90
51841;DHT22;37888;53.246;6.658;2023-07-28T14:59:50;22.80;99.90
51841;DHT22;37888;53.246;6.658;2023-07-28T15:02:16;22.80;99.90
51841;DHT22;37888;53.246;6.658;2023-07-28T15:04:42;22.70;99.90
51841;DHT22;37888;53.246;6.658;2023-07-28T15:07:10;22.60;99.90
51841;DHT22;37888;53.246;6.658;2023-07-28T15:09:36;22.60;99.90
51841;DHT22;37888;53.246;6.658;2023-07-28T15:12:02;22.80;99.90
51841;DHT22;37888;53.246;6.658;2023-07-28T15:14:28;22.70;99.90
51841;DHT22;37888;53.246;6.658;2023-07-28T15:16:54;22.80;99.90
51841;DHT22;37888;53.246;6.658;2023-07-28T15:19:19;22.80;99.90
51841;DHT22;37888;53.246;6.658;2023-07-28T15:21:45;23.30;99.90
51841;DHT22;37888;53.246;6.658;2023-07-28T15:24:14;22.90;99.90
51841;DHT22;37888;53.246;6.658;2023-07-28T15:26:43;22.90;99.90
51841;DHT22;37888;53.246;6.658;2023-07-28T15:29:13;22.90;99.90
51841;DHT22;37888;53.246;6.658;2023-07-28T15:31:38;22.90;99.90
51841;DHT22;37888;53.246;6.658;2023-07-28T15:34:06;22.90;99.90
51841;DHT22;37888;53.246;6.658;2023-07-28T15:36:32;22.90;99.90
51841;DHT22;37888;53.246;6.658;2023-07-28T15:38:58;22.90;99.90
51841;DHT22;37888;53.246;6.658;2023-07-28T15:41:24;22.90;99.90
51841;DHT22;37888;53.246;6.658;2023-07-28T15:43:50;22.80;99.90
51841;DHT22;37888;53.246;6.658;2023-07-28T15:46:16;22.80;99.90
51841;DHT22;37888;53.246;6.658;2023-07-28T15:48:42;22.70;99.90
51841;DHT22;37888;53.246;6.658;2023-07-28T15:51:09;22.60;99.90
51841;DHT22;37888;53.246;6.658;2023-07-28T15:53:35;22.50;99.90
51841;DHT22;37888;53.246;6.658;2023-07-28T15:56:00;22.50;99.90
51841;DHT22;37888;53.246;6.658;2023-07-28T15:58:26;22.50;99.90
51841;DHT22;37888;53.246;6.658;2023-07-28T16:00:52;22.50;99.90
51841;DHT22;37888;53.246;6.658;2023-07-28T16:03:18;22.50;99.90
51841;DHT22;37888;53.246;6.658;2023-07-28T16:05:46;22.60;99.90
51841;DHT22;37888;53.246;6.658;2023-07-28T16:08:12;22.80;99.90
51841;DHT22;37888;53.246;6.658;2023-07-28T16:10:41;22.90;99.90
51841;DHT22;37888;53.246;6.658;2023-07-28T16:13:06;22.90;99.90
51841;DHT22;37888;53.246;6.658;2023-07-28T16:15:35;22.80;99.90
51841;DHT22;37888;53.246;6.658;2023-07-28T16:18:01;22.80;99.90
51841;DHT22;37888;53.246;6.658;2023-07-28T16:20:27;22.70;99.90
51841;DHT22;37888;53.246;6.658;2023-07-28T16:22:52;22.60;99.90
51841;DHT22;37888;53.246;6.658;2023-07-28T16:25:18;22.50;99.90
51841;DHT22;37888;53.246;6.658;2023-07-28T16:27:44;22.30;99.90
51841;DHT22;37888;53.246;6.658;2023-07-28T16:30:10;22.20;99.90
51841;DHT22;37888;53.246;6.658;2023-07-28T16:32:36;22.00;99.90
51841;DHT22;37888;53.246;6.658;2023-07-28T16:35:04;21.90;99.90
51841;DHT22;37888;53.246;6.658;2023-07-28T16:37:30;21.80;99.90
51841;DHT22;37888;53.246;6.658;2023-07-28T16:39:56;21.80;99.90
51841;DHT22;37888;53.246;6.658;2023-07-28T16:42:22;21.70;99.90
51841;DHT22;37888;53.246;6.658;2023-07-28T16:44:47;21.70;99.90
51841;DHT22;37888;53.246;6.658;2023-07-28T16:47:13;21.70;99.90
51841;DHT22;37888;53.246;6.658;2023-07-28T16:49:42;21.60;99.90
51841;DHT22;37888;53.246;6.658;2023-07-28T16:52:18;21.60;99.90